DAL270 KJFK-RJTT
Flight info
| Callsign | DAL270 |
|---|---|
| Flight time | N/A |
| Altitude | 34000 |
| Route | DCT GAYEL Q812 SYR DCT ROSVO DCT YUY/N0487F320 DCT YMO DCT 59N090W 63N100W 65N110W/N0487F340 66N120W 67N130W DCT GOATS DCT FYU DCT OME/N0490F360 R338 NATES/N0482F370 R220 NRKEY/N0481F380 R220 NUBDA/N0479F390 R220 NANAC/N0481F380 Z22 LOSVA Y810 AKRIT Y807 POLIX POLIX1S |
| Aircraft | B772/H-V/N |
Departure
| Time | N/A |
|---|---|
| Airport | John F. Kennedy International Airport (KJFK) |
Arrival
| Time | 2026-05-04 08:35 |
|---|---|
| Airport | Tokyo Haneda International Airport (RJTT) |
| Time | Latitude | Longitude | Altitude | Speed | Heading |
|---|---|---|---|---|---|
| 2026-05-04 07:17 | 40.08864 | 144.59975 | 33513 ft | 365 kts | 225° |
| 2026-05-04 07:17 | 40.06983 | 144.57741 | 33510 ft | 366 kts | 225° |
| 2026-05-04 07:18 | 40.03214 | 144.53271 | 33510 ft | 366 kts | 225° |
| 2026-05-04 07:18 | 39.99438 | 144.48799 | 33508 ft | 367 kts | 225° |
| 2026-05-04 07:19 | 39.95658 | 144.44330 | 33525 ft | 367 kts | 225° |
| 2026-05-04 07:19 | 39.91876 | 144.39866 | 33513 ft | 366 kts | 225° |
| 2026-05-04 07:20 | 39.88105 | 144.35421 | 33512 ft | 365 kts | 225° |
| 2026-05-04 07:20 | 39.84345 | 144.30996 | 33512 ft | 364 kts | 225° |
| 2026-05-04 07:22 | 39.69365 | 144.13432 | 33524 ft | 363 kts | 224° |
| 2026-05-04 07:23 | 39.65638 | 144.09079 | 33523 ft | 363 kts | 224° |
| 2026-05-04 07:23 | 39.61882 | 144.04698 | 33521 ft | 363 kts | 224° |
| 2026-05-04 07:24 | 39.58121 | 144.00319 | 33530 ft | 364 kts | 224° |
| 2026-05-04 07:24 | 39.54357 | 143.95943 | 33530 ft | 364 kts | 224° |
| 2026-05-04 07:26 | 39.39247 | 143.78442 | 33538 ft | 365 kts | 224° |
| 2026-05-04 07:27 | 39.35452 | 143.74063 | 33544 ft | 366 kts | 224° |
| 2026-05-04 07:27 | 39.31651 | 143.69684 | 33546 ft | 366 kts | 224° |
| 2026-05-04 07:28 | 39.27848 | 143.65309 | 33549 ft | 366 kts | 224° |
| 2026-05-04 07:28 | 39.24046 | 143.60942 | 33549 ft | 366 kts | 224° |
| 2026-05-04 07:29 | 39.20242 | 143.56580 | 33549 ft | 366 kts | 224° |
| 2026-05-04 07:29 | 39.16441 | 143.52228 | 33537 ft | 365 kts | 224° |
| 2026-05-04 07:30 | 39.12637 | 143.47877 | 33556 ft | 366 kts | 224° |
| 2026-05-04 07:30 | 39.08820 | 143.43518 | 33558 ft | 368 kts | 224° |
| 2026-05-04 07:31 | 39.04987 | 143.39148 | 33558 ft | 369 kts | 224° |
| 2026-05-04 07:33 | 38.88854 | 143.22866 | 33574 ft | 375 kts | 214° |
| 2026-05-04 07:33 | 38.84028 | 143.20194 | 33572 ft | 383 kts | 205° |
| 2026-05-04 07:34 | 38.78917 | 143.18255 | 33574 ft | 383 kts | 205° |
| 2026-05-04 07:34 | 38.73807 | 143.16327 | 33586 ft | 382 kts | 205° |
| 2026-05-04 07:35 | 38.68714 | 143.14388 | 33577 ft | 382 kts | 205° |
| 2026-05-04 07:35 | 38.63634 | 143.12446 | 33576 ft | 380 kts | 205° |
| 2026-05-04 07:36 | 38.58555 | 143.10502 | 33584 ft | 381 kts | 205° |
| 2026-05-04 07:38 | 38.38092 | 143.02696 | 33591 ft | 386 kts | 205° |
| 2026-05-04 07:38 | 38.32928 | 143.00734 | 33614 ft | 388 kts | 206° |
| 2026-05-04 07:39 | 38.27751 | 142.98769 | 33600 ft | 388 kts | 205° |
| 2026-05-04 07:39 | 38.22577 | 142.96813 | 33568 ft | 388 kts | 205° |
| 2026-05-04 07:40 | 38.17408 | 142.94860 | 33595 ft | 387 kts | 205° |
| 2026-05-04 07:40 | 38.12245 | 142.92909 | 33606 ft | 387 kts | 205° |
| 2026-05-04 07:41 | 38.07074 | 142.90958 | 33602 ft | 388 kts | 205° |
| 2026-05-04 07:41 | 38.01936 | 142.89023 | 33601 ft | 388 kts | 205° |
| 2026-05-04 07:42 | 37.96759 | 142.87075 | 33596 ft | 388 kts | 204° |
| 2026-05-04 07:42 | 37.91575 | 142.85130 | 33606 ft | 389 kts | 204° |
| 2026-05-04 07:43 | 37.86366 | 142.83177 | 33615 ft | 391 kts | 204° |
| 2026-05-04 07:43 | 37.81145 | 142.81223 | 33612 ft | 392 kts | 204° |
| 2026-05-04 07:44 | 37.75920 | 142.79269 | 33617 ft | 392 kts | 204° |
| 2026-05-04 07:44 | 37.70680 | 142.77314 | 33617 ft | 393 kts | 204° |
| 2026-05-04 07:45 | 37.65431 | 142.75356 | 33620 ft | 394 kts | 204° |
| 2026-05-04 07:45 | 37.60172 | 142.73400 | 33617 ft | 394 kts | 204° |
| 2026-05-04 07:46 | 37.54905 | 142.71444 | 33588 ft | 394 kts | 204° |
| 2026-05-04 07:46 | 37.49631 | 142.69512 | 33610 ft | 395 kts | 204° |
| 2026-05-04 07:47 | 37.44347 | 142.67584 | 33619 ft | 396 kts | 204° |
| 2026-05-04 07:49 | 37.23179 | 142.59875 | 33619 ft | 397 kts | 203° |
| 2026-05-04 07:49 | 37.17871 | 142.57945 | 33618 ft | 397 kts | 203° |
| 2026-05-04 07:50 | 37.12565 | 142.56015 | 33616 ft | 397 kts | 203° |
| 2026-05-04 07:50 | 37.07256 | 142.54086 | 33604 ft | 397 kts | 203° |
| 2026-05-04 07:51 | 37.01945 | 142.52161 | 33633 ft | 398 kts | 203° |
| 2026-05-04 07:51 | 36.96622 | 142.50233 | 33618 ft | 398 kts | 203° |
| 2026-05-04 07:52 | 36.91299 | 142.48310 | 33615 ft | 398 kts | 203° |
| 2026-05-04 07:52 | 36.85973 | 142.46397 | 33608 ft | 398 kts | 203° |
| 2026-05-04 07:54 | 36.64589 | 142.38771 | 33625 ft | 401 kts | 202° |
| 2026-05-04 07:55 | 36.59223 | 142.36863 | 33615 ft | 401 kts | 202° |
| 2026-05-04 07:55 | 36.53859 | 142.34958 | 33619 ft | 401 kts | 202° |
| 2026-05-04 07:56 | 36.48491 | 142.33055 | 33619 ft | 401 kts | 202° |
| 2026-05-04 07:56 | 36.43153 | 142.31165 | 33608 ft | 400 kts | 202° |
| 2026-05-04 07:57 | 36.37791 | 142.29268 | 33618 ft | 401 kts | 202° |
| 2026-05-04 07:57 | 36.32432 | 142.27336 | 33448 ft | 398 kts | 207° |
| 2026-05-04 07:58 | 36.30070 | 142.25657 | 33032 ft | 390 kts | 223° |
| 2026-05-04 07:58 | 36.28247 | 142.23191 | 32671 ft | 389 kts | 233° |
| 2026-05-04 07:58 | 36.26801 | 142.20408 | 32323 ft | 391 kts | 237° |
| 2026-05-04 07:58 | 36.25501 | 142.17434 | 31982 ft | 393 kts | 241° |
| 2026-05-04 07:59 | 36.24483 | 142.14282 | 31633 ft | 399 kts | 251° |
| 2026-05-04 07:59 | 36.24216 | 142.10827 | 31296 ft | 407 kts | 262° |
| 2026-05-04 07:59 | 36.24212 | 142.07305 | 30976 ft | 410 kts | 262° |
| 2026-05-04 07:59 | 36.24213 | 142.03769 | 30667 ft | 411 kts | 262° |
| 2026-05-04 08:00 | 36.24205 | 142.00238 | 30344 ft | 410 kts | 262° |
| 2026-05-04 08:00 | 36.24184 | 141.96716 | 30016 ft | 408 kts | 262° |
| 2026-05-04 08:00 | 36.24151 | 141.93217 | 29700 ft | 405 kts | 262° |
| 2026-05-04 08:02 | 36.23809 | 141.70651 | 27316 ft | 381 kts | 261° |
| 2026-05-04 08:02 | 36.23754 | 141.67385 | 26958 ft | 378 kts | 261° |
| 2026-05-04 08:02 | 36.23698 | 141.64149 | 26622 ft | 374 kts | 261° |
| 2026-05-04 08:03 | 36.23642 | 141.60944 | 26282 ft | 371 kts | 261° |
| 2026-05-04 08:03 | 36.23585 | 141.57762 | 25940 ft | 368 kts | 261° |
| 2026-05-04 08:03 | 36.23527 | 141.54608 | 25620 ft | 365 kts | 261° |
| 2026-05-04 08:03 | 36.23469 | 141.51476 | 25290 ft | 363 kts | 261° |
| 2026-05-04 08:04 | 36.23411 | 141.48357 | 24965 ft | 361 kts | 261° |
| 2026-05-04 08:04 | 36.23352 | 141.45255 | 24664 ft | 359 kts | 261° |
| 2026-05-04 08:04 | 36.23292 | 141.42177 | 24365 ft | 357 kts | 261° |
| 2026-05-04 08:04 | 36.23233 | 141.39107 | 24077 ft | 355 kts | 261° |
| 2026-05-04 08:05 | 36.23173 | 141.36057 | 23783 ft | 354 kts | 261° |
| 2026-05-04 08:05 | 36.23112 | 141.33016 | 23515 ft | 352 kts | 261° |
| 2026-05-04 08:05 | 36.23051 | 141.29992 | 23235 ft | 351 kts | 261° |
| 2026-05-04 08:05 | 36.22989 | 141.26980 | 22903 ft | 349 kts | 261° |
| 2026-05-04 08:06 | 36.22927 | 141.23979 | 22569 ft | 348 kts | 261° |
| 2026-05-04 08:06 | 36.22865 | 141.20993 | 22232 ft | 346 kts | 261° |
| 2026-05-04 08:06 | 36.22802 | 141.18020 | 21894 ft | 345 kts | 261° |
| 2026-05-04 08:06 | 36.22739 | 141.15064 | 21567 ft | 343 kts | 261° |
| 2026-05-04 08:08 | 36.22286 | 140.94770 | 19365 ft | 332 kts | 261° |
| 2026-05-04 08:08 | 36.22219 | 140.91923 | 19064 ft | 330 kts | 261° |
| 2026-05-04 08:10 | 36.21676 | 140.69642 | 16540 ft | 318 kts | 261° |
| 2026-05-04 08:11 | 36.21606 | 140.66915 | 16253 ft | 317 kts | 261° |
| 2026-05-04 08:11 | 36.21464 | 140.61454 | 15580 ft | 318 kts | 262° |
| 2026-05-04 08:11 | 36.21392 | 140.58710 | 15264 ft | 319 kts | 262° |
| 2026-05-04 08:12 | 36.21320 | 140.55954 | 14944 ft | 320 kts | 262° |
| 2026-05-04 08:12 | 36.21247 | 140.53193 | 14643 ft | 321 kts | 262° |
| 2026-05-04 08:12 | 36.21175 | 140.50453 | 14335 ft | 315 kts | 262° |
| 2026-05-04 08:12 | 36.21212 | 140.47796 | 14002 ft | 309 kts | 272° |
| 2026-05-04 08:13 | 36.21923 | 140.45241 | 13704 ft | 320 kts | 288° |
| 2026-05-04 08:13 | 36.23099 | 140.42875 | 13421 ft | 327 kts | 296° |
| 2026-05-04 08:13 | 36.24718 | 140.40856 | 13061 ft | 336 kts | 315° |
| 2026-05-04 08:13 | 36.26695 | 140.39323 | 12724 ft | 332 kts | 318° |
| 2026-05-04 08:14 | 36.28640 | 140.37836 | 12397 ft | 326 kts | 318° |
| 2026-05-04 08:14 | 36.30546 | 140.36348 | 12088 ft | 321 kts | 318° |
| 2026-05-04 08:14 | 36.32412 | 140.34871 | 11754 ft | 316 kts | 319° |
| 2026-05-04 08:16 | 36.39641 | 140.22231 | 9834 ft | 261 kts | 255° |
| 2026-05-04 08:16 | 36.39192 | 140.20039 | 9579 ft | 263 kts | 254° |
| 2026-05-04 08:16 | 36.38729 | 140.17835 | 9313 ft | 265 kts | 255° |
| 2026-05-04 08:17 | 36.38267 | 140.15609 | 9071 ft | 266 kts | 255° |
| 2026-05-04 08:17 | 36.37812 | 140.13378 | 8846 ft | 266 kts | 256° |
| 2026-05-04 08:17 | 36.37367 | 140.11150 | 8639 ft | 266 kts | 256° |
| 2026-05-04 08:17 | 36.36948 | 140.09031 | 8482 ft | 263 kts | 255° |
| 2026-05-04 08:19 | 36.29847 | 139.98175 | 7041 ft | 279 kts | 199° |
| 2026-05-04 08:19 | 36.27959 | 139.97584 | 6846 ft | 280 kts | 199° |
| 2026-05-04 08:20 | 36.26083 | 139.96996 | 6647 ft | 276 kts | 200° |
| 2026-05-04 08:20 | 36.24233 | 139.96391 | 6451 ft | 275 kts | 199° |
| 2026-05-04 08:20 | 36.22379 | 139.95794 | 6263 ft | 276 kts | 199° |
| 2026-05-04 08:20 | 36.20503 | 139.95321 | 6054 ft | 278 kts | 189° |
| 2026-05-04 08:21 | 36.18562 | 139.95258 | 5898 ft | 279 kts | 184° |
| 2026-05-04 08:21 | 36.16631 | 139.95303 | 5837 ft | 277 kts | 183° |
| 2026-05-04 08:21 | 36.14683 | 139.95344 | 5800 ft | 283 kts | 184° |
| 2026-05-04 08:21 | 36.12700 | 139.95368 | 5725 ft | 285 kts | 184° |
| 2026-05-04 08:22 | 36.10718 | 139.95377 | 5610 ft | 285 kts | 183° |
| 2026-05-04 08:22 | 36.08732 | 139.95375 | 5516 ft | 285 kts | 183° |
| 2026-05-04 08:24 | 35.95579 | 139.95261 | 4986 ft | 249 kts | 184° |
| 2026-05-04 08:24 | 35.93916 | 139.95246 | 4964 ft | 235 kts | 184° |
| 2026-05-04 08:24 | 35.92343 | 139.95499 | 4974 ft | 218 kts | 163° |
| 2026-05-04 08:24 | 35.90948 | 139.96166 | 4978 ft | 213 kts | 162° |
| 2026-05-04 08:25 | 35.89608 | 139.96769 | 4971 ft | 205 kts | 164° |
| 2026-05-04 08:25 | 35.88290 | 139.97354 | 4976 ft | 198 kts | 165° |
| 2026-05-04 08:25 | 35.87036 | 139.97909 | 4960 ft | 187 kts | 166° |
| 2026-05-04 08:25 | 35.85789 | 139.98244 | 4967 ft | 181 kts | 192° |
| 2026-05-04 08:26 | 35.84541 | 139.98037 | 4997 ft | 185 kts | 193° |
| 2026-05-04 08:27 | 35.77684 | 139.92661 | 4953 ft | 195 kts | 226° |
| 2026-05-04 08:28 | 35.76393 | 139.92012 | 4772 ft | 208 kts | 197° |
| 2026-05-04 08:28 | 35.74998 | 139.91620 | 4528 ft | 204 kts | 202° |
| 2026-05-04 08:28 | 35.73636 | 139.91133 | 4279 ft | 202 kts | 203° |
| 2026-05-04 08:28 | 35.72350 | 139.90598 | 3980 ft | 187 kts | 209° |
| 2026-05-04 08:29 | 35.71209 | 139.89993 | 3692 ft | 171 kts | 209° |
| 2026-05-04 08:29 | 35.70164 | 139.89376 | 3425 ft | 163 kts | 213° |
| 2026-05-04 08:29 | 35.69193 | 139.88714 | 3199 ft | 154 kts | 228° |
| 2026-05-04 08:31 | 35.63470 | 139.83561 | 1511 ft | 128 kts | 221° |
| 2026-05-04 08:33 | 35.58743 | 139.79375 | 605 ft | 119 kts | 216° |
| 2026-05-04 08:33 | 35.58063 | 139.78822 | 451 ft | 115 kts | 213° |
| 2026-05-04 08:35 | 35.55319 | 139.76749 | 27 ft | 16 kts | 42° |
| 2026-05-04 08:35 | 35.55409 | 139.76836 | 27 ft | 19 kts | 43° |
| 2026-05-04 08:35 | 35.55348 | 139.76985 | 27 ft | 26 kts | 151° |
| 2026-05-04 08:35 | 35.55190 | 139.77097 | 27 ft | 26 kts | 150° |
| 2026-05-04 08:37 | 35.54743 | 139.77071 | 27 ft | 8 kts | 277° |
| 2026-05-04 08:37 | 35.54736 | 139.77001 | 27 ft | 8 kts | 247° |
| 2026-05-04 08:37 | 35.54719 | 139.76961 | 27 ft | 3 kts | 240° |
| 2026-05-04 08:38 | 35.54711 | 139.76944 | 27 ft | 2 kts | 240° |
| 2026-05-04 08:38 | 35.54709 | 139.76939 | 27 ft | 0 kts | 240° |
| 2026-05-04 08:38 | 35.54709 | 139.76938 | 27 ft | 0 kts | 240° |
| 2026-05-04 08:40 | 35.54709 | 139.76939 | 27 ft | 0 kts | 240° |
| 2026-05-04 08:42 | 35.54711 | 139.76943 | 27 ft | 0 kts | 240° |
| 2026-05-04 08:42 | 35.54707 | 139.76935 | 27 ft | 0 kts | 240° |
| 2026-05-04 08:43 | 35.54709 | 139.76938 | 27 ft | 0 kts | 240° |